Acme, Washington
Current Conditions -  °F | °C
As of 5:53 AM on Tuesday 21 Oct 2014 (Local Time) from KBLI Reporting Station
Overcast Overcast  
Wind Chill: 56°   Ceiling: 1700
Heat Index: 56°   Visibility: 10mi
Dew Point: 50°   Wind: 12mph
Humidity: 80%   Direction: 150°SSE
Pressure: 29.79"   Gusts: 22mph
Location:  48.72°N, 122.21°W
Report Text: KBLI 211253Z AUTO 15010G19KT 10SM OVC017 13/10 A2979 RMK AO2 SLP093 T01330100
Loading
Personal Weather Stations






























Interactive Weather Map
Tropical Storm Tracking
New forecast layout! Learn more

10-Day Weather Forecast

Advertisements
Track Severe Weather on mobile